Country
Station

 

Weather  for  Columbia, Columbia Owens Downtown Airport  -  United States    United States

  
7 °C (45 °F)
    
 
 

Current METAR for Columbia, Columbia Owens Downtown Airport is :

KCUB 191353Z AUTO 07008KT 10SM OVC085 07/M01 A3054 RMK AO2 RAE44 SLP341 P0001 T00671006

 

This is a report for Columbia, Columbia Owens Downtown Airport - United States.
 
The report was made 19 minutes ago, at 13:53 UTC .
The wind was blowing at a speed of 4.1 meters per second (9.2 miles per hour) from east/northeast (070°).
 
The temperature was 7 °C (45 °F), with a dew-point at -1 °C (30 °F).
The atmospheric pressure was 1034 hPa (30.54 inHg).
The relative humidity was 56.7%.
 
The sky was overcast from a height of 2591 meter (8500 feet)
 
The overall visibility was 16.1 kilometers (10.0 miles).
 

 
 
 
 

Country :   A   B   C   D   E   F   G   H   I   J   K   L   M   N   O   P   Q   R   S   T   U   V   W   Y   Z

 

Site Info  |  Disclaimer  |  Credits  |  Privacy
Contact us  |  Add to favorites
© 2013-2019 METARs - All rights reserved